Accueil
METAR-TAF:

METAR-TAF

Aéroports :

Portorož, Slovénie

latitude: 45-31N, longitude: 013-34E, altitude: 95 m

Observation

Le bulletin a été fait il y a 34 minutes, à 08:00 UTC
Vent 4 kt de est/sud-est
Température 1°C
Humidité 75%
Pression 1024 hPa
Visibilité 10 km ou plus
pas de nuages en-dessous de 1500 mètres et pas de cumulonimbus.

METAR: LJPZ 300800Z 11004KT CAVOK 01/M03 Q1024

Heure: 09:34 (08:34 UTC)

Prévision

Le bulletin a été fait il y a 3 heures et 34 minutes, à 05:00 UTC
Prévision valable du 30 à 06 UTC au 30 à 15 UTC
Vent 5 kt de sud-est
Visibilité 10 km ou plus
pas de nuages en-dessous de 1500 mètres et pas de cumulonimbus.

TAF: LJPZ 300500Z 3006/3015 13005KT CAVOK

Observations et prévisions météorologiques de plus de 4000 aéroports (messages METAR et TAF).

Les stations disponibles sont représentées par des disques jaunes et rouges sur la carte.

Passer la souris dessus pour voir le nom de la station.

Cliquer dessus pour voir les observations et prévisions météorologiques.

Pour changer de carte: cliquez sur les boutons verts avec une croix noire pour zoomer, sur le bouton vert avec un tiret pour effectuer un zoom arrière, ou sur les flèches vertes pour les cartes adjacentes.


METAR-TAF: